createdAt,value
2018-03-07T00:00:19.979Z,4.30
2018-03-07T00:02:54.959Z,4.28
2018-03-07T00:05:30.110Z,4.26
2018-03-07T00:08:05.382Z,4.26
2018-03-07T00:10:40.862Z,4.19
2018-03-07T00:13:16.082Z,4.15
2018-03-07T00:15:51.042Z,4.10
2018-03-07T00:18:26.254Z,4.08
2018-03-07T00:21:01.398Z,4.05
2018-03-07T00:23:36.507Z,4.00
2018-03-07T00:26:12.039Z,3.92
2018-03-07T00:28:47.023Z,3.97
2018-03-07T00:31:22.850Z,3.98
2018-03-07T00:33:57.308Z,4.09
2018-03-07T00:36:32.358Z,4.09
2018-03-07T00:39:07.462Z,4.10
2018-03-07T00:41:42.965Z,4.10
2018-03-07T00:44:18.035Z,4.11
2018-03-07T00:46:52.982Z,4.15
2018-03-07T00:49:28.046Z,4.15
2018-03-07T00:52:03.054Z,4.17
2018-03-07T00:54:38.108Z,4.26
2018-03-07T00:57:13.059Z,4.30
2018-03-07T00:59:48.146Z,4.28
2018-03-07T01:02:23.093Z,4.39
2018-03-07T01:04:58.045Z,4.40
2018-03-07T01:07:33.099Z,4.40
2018-03-07T01:10:08.558Z,4.38
2018-03-07T01:12:43.330Z,4.35
2018-03-07T01:15:18.262Z,4.38
2018-03-07T01:17:53.009Z,4.36
2018-03-07T01:20:28.203Z,4.17
2018-03-07T01:23:03.034Z,4.07
2018-03-07T01:25:38.065Z,4.08
2018-03-07T01:28:13.407Z,3.95
2018-03-07T01:30:48.222Z,3.87
2018-03-07T01:33:23.202Z,3.84
2018-03-07T01:35:58.494Z,3.80
2018-03-07T01:38:33.380Z,3.75
2018-03-07T01:41:08.622Z,3.78
2018-03-07T01:43:43.542Z,3.76
2018-03-07T01:46:18.550Z,3.69
2018-03-07T01:48:53.610Z,3.69
2018-03-07T01:51:39.610Z,3.68
2018-03-07T01:54:14.444Z,3.66
2018-03-07T01:56:49.517Z,3.65
2018-03-07T01:59:25.278Z,3.61
2018-03-07T02:02:01.478Z,3.59
2018-03-07T02:04:36.114Z,3.56
2018-03-07T02:07:10.749Z,3.54
2018-03-07T02:09:45.698Z,3.53
2018-03-07T02:12:20.737Z,3.53
2018-03-07T02:14:55.611Z,3.55
2018-03-07T02:17:31.922Z,3.59
2018-03-07T02:20:07.466Z,3.58
2018-03-07T02:22:42.422Z,3.61
2018-03-07T02:25:17.858Z,3.66
2018-03-07T02:27:52.716Z,3.64
2018-03-07T02:30:27.744Z,3.61
2018-03-07T02:33:02.595Z,3.56
2018-03-07T02:35:37.379Z,3.48
2018-03-07T02:38:12.535Z,3.46
2018-03-07T02:40:47.345Z,3.52
2018-03-07T02:43:22.250Z,3.62
2018-03-07T02:45:56.603Z,3.63
2018-03-07T02:48:31.663Z,3.63
2018-03-07T02:51:06.598Z,3.67
2018-03-07T02:53:41.698Z,3.65
2018-03-07T02:56:16.287Z,3.57
2018-03-07T02:58:51.323Z,3.45
2018-03-07T03:01:26.435Z,3.41
2018-03-07T03:04:01.672Z,3.38
2018-03-07T03:06:36.547Z,3.30
2018-03-07T03:09:11.794Z,3.27
2018-03-07T03:11:47.306Z,3.26
2018-03-07T03:14:22.311Z,3.22
2018-03-07T03:16:57.354Z,3.19
2018-03-07T03:19:32.322Z,3.15
2018-03-07T03:22:07.597Z,3.17
2018-03-07T03:24:42.494Z,3.16
2018-03-07T03:27:17.764Z,3.14
2018-03-07T03:29:52.706Z,3.10
2018-03-07T03:32:27.798Z,3.01
2018-03-07T03:35:02.798Z,2.97
2018-03-07T03:37:37.922Z,2.96
2018-03-07T03:40:13.415Z,2.90
2018-03-07T03:42:48.603Z,2.89
2018-03-07T03:45:23.482Z,2.98
2018-03-07T03:47:58.462Z,3.03
2018-03-07T03:50:33.590Z,3.01
2018-03-07T03:53:08.675Z,2.97
2018-03-07T03:55:43.726Z,2.94
2018-03-07T03:58:19.123Z,2.91
2018-03-07T04:00:54.546Z,2.88
2018-03-07T04:03:29.633Z,2.84
2018-03-07T04:06:04.718Z,2.84
2018-03-07T04:08:39.795Z,2.84
2018-03-07T04:11:20.918Z,2.80
2018-03-07T04:13:55.451Z,2.79
2018-03-07T04:16:30.494Z,2.77
2018-03-07T04:19:05.797Z,2.76
2018-03-07T04:21:40.658Z,2.75
2018-03-07T04:24:15.888Z,2.71
2018-03-07T04:26:50.547Z,2.72
2018-03-07T04:29:26.550Z,2.73
2018-03-07T04:32:01.917Z,2.74
2018-03-07T04:34:36.782Z,2.76
2018-03-07T04:37:11.740Z,2.73
2018-03-07T04:39:46.749Z,2.74
2018-03-07T04:42:21.123Z,2.75
2018-03-07T04:44:56.505Z,2.72
2018-03-07T04:47:31.326Z,2.68
2018-03-07T04:50:06.826Z,2.61
2018-03-07T04:52:41.863Z,2.57
2018-03-07T04:55:16.786Z,2.59
2018-03-07T04:57:51.738Z,2.61
2018-03-07T05:00:26.207Z,2.62
2018-03-07T05:03:01.965Z,2.61
2018-03-07T05:05:37.703Z,2.61
2018-03-07T05:08:13.079Z,2.60
2018-03-07T05:10:47.961Z,2.60
2018-03-07T05:13:22.842Z,2.61
2018-03-07T05:15:57.951Z,2.64
2018-03-07T05:18:33.022Z,2.69
2018-03-07T05:21:07.976Z,2.73
2018-03-07T05:23:42.977Z,2.72
2018-03-07T05:26:18.044Z,2.71
2018-03-07T05:28:53.477Z,2.72
2018-03-07T05:31:28.618Z,2.69
2018-03-07T05:34:03.699Z,2.73
2018-03-07T05:36:38.791Z,2.72
2018-03-07T05:39:14.267Z,2.71
2018-03-07T05:41:49.769Z,2.70
2018-03-07T05:44:24.689Z,2.70
2018-03-07T05:46:59.843Z,2.71
2018-03-07T05:49:34.935Z,2.76
2018-03-07T05:52:09.890Z,2.79
2018-03-07T05:54:45.054Z,2.79
2018-03-07T05:57:20.118Z,2.80
2018-03-07T05:59:55.629Z,2.79
2018-03-07T06:02:30.351Z,2.78
2018-03-07T06:05:05.954Z,2.79
2018-03-07T06:07:40.818Z,2.81
2018-03-07T06:10:16.005Z,2.80
2018-03-07T06:12:51.091Z,2.84
2018-03-07T06:15:26.704Z,2.88
2018-03-07T06:18:02.206Z,2.91
2018-03-07T06:20:37.763Z,2.90
2018-03-07T06:23:12.825Z,2.91
2018-03-07T06:25:47.833Z,2.95
2018-03-07T06:28:23.082Z,3.01
2018-03-07T06:30:58.342Z,3.05
2018-03-07T06:33:33.286Z,3.10
2018-03-07T06:36:08.995Z,3.12
2018-03-07T06:38:44.500Z,3.13
2018-03-07T06:41:19.794Z,3.13
2018-03-07T06:43:54.779Z,3.12
2018-03-07T06:46:29.930Z,3.12
2018-03-07T06:49:05.223Z,3.12
2018-03-07T06:51:40.821Z,3.15
2018-03-07T06:54:15.970Z,3.18
2018-03-07T06:56:50.894Z,3.23
2018-03-07T06:59:25.834Z,3.26
2018-03-07T07:02:02.402Z,3.29
2018-03-07T07:04:37.915Z,3.37
2018-03-07T07:07:12.903Z,3.43
2018-03-07T07:09:47.978Z,3.42
2018-03-07T07:12:22.938Z,3.40
2018-03-07T07:14:57.886Z,3.45
2018-03-07T07:17:32.938Z,3.47
2018-03-07T07:20:07.314Z,3.44
2018-03-07T07:22:42.342Z,3.46
2018-03-07T07:25:18.044Z,3.47
2018-03-07T07:27:53.315Z,3.49
2018-03-07T07:30:28.422Z,3.51
2018-03-07T07:33:03.396Z,3.56
2018-03-07T07:35:38.985Z,3.61
2018-03-07T07:38:14.131Z,3.65
2018-03-07T07:40:48.986Z,3.70
2018-03-07T07:43:24.008Z,3.77
2018-03-07T07:45:59.139Z,3.76
2018-03-07T07:48:33.991Z,3.78
2018-03-07T07:51:08.946Z,3.83
2018-03-07T07:53:44.004Z,3.87
2018-03-07T07:56:19.212Z,3.89
2018-03-07T07:58:53.983Z,3.92
2018-03-07T08:01:29.282Z,3.86
2018-03-07T08:04:04.448Z,3.84
2018-03-07T08:06:40.030Z,3.87
2018-03-07T08:09:15.260Z,3.91
2018-03-07T08:11:50.235Z,3.91
2018-03-07T08:14:25.398Z,3.95
2018-03-07T08:17:00.795Z,4.03
2018-03-07T08:19:35.466Z,4.09
2018-03-07T08:22:10.256Z,4.13
2018-03-07T08:24:45.338Z,4.19
2018-03-07T08:27:20.483Z,4.23
2018-03-07T08:29:55.314Z,4.26
2018-03-07T08:32:30.173Z,4.27
2018-03-07T08:35:04.862Z,4.27
2018-03-07T08:37:40.046Z,4.30
2018-03-07T08:40:15.438Z,4.31
2018-03-07T08:42:50.427Z,4.31
2018-03-07T08:45:25.175Z,4.32
2018-03-07T08:47:59.643Z,4.32
2018-03-07T08:50:34.792Z,4.33
2018-03-07T08:53:09.666Z,4.33
2018-03-07T08:55:45.226Z,4.35
2018-03-07T08:58:20.250Z,4.37
2018-03-07T09:00:55.261Z,4.43
2018-03-07T09:03:30.256Z,4.47
2018-03-07T09:06:04.599Z,4.45
2018-03-07T09:08:40.056Z,4.41
2018-03-07T09:11:15.478Z,4.37
2018-03-07T09:13:50.640Z,4.36
2018-03-07T09:16:29.196Z,4.38
2018-03-07T09:19:04.408Z,4.37
2018-03-07T09:21:39.294Z,4.34
2018-03-07T09:24:14.406Z,4.34
2018-03-07T09:26:49.358Z,4.35
2018-03-07T09:29:24.137Z,4.42
2018-03-07T09:31:59.383Z,4.54
2018-03-07T09:34:34.368Z,4.62
2018-03-07T09:37:09.371Z,4.61
2018-03-07T09:39:44.431Z,4.53
2018-03-07T09:42:19.265Z,4.45
2018-03-07T09:44:54.307Z,4.42
2018-03-07T09:47:29.507Z,4.50
2018-03-07T09:50:03.870Z,4.53
2018-03-07T09:52:38.506Z,4.55
2018-03-07T09:55:14.014Z,4.60
2018-03-07T09:57:49.284Z,4.60
2018-03-07T10:00:23.883Z,4.59
2018-03-07T10:02:59.234Z,4.62
2018-03-07T10:05:34.362Z,4.63
2018-03-07T10:08:09.530Z,4.60
2018-03-07T10:10:44.262Z,4.54
2018-03-07T10:13:19.516Z,4.62
2018-03-07T10:15:54.654Z,4.70
2018-03-07T10:18:29.723Z,4.76
2018-03-07T10:21:04.832Z,4.86
2018-03-07T10:23:39.858Z,4.95
2018-03-07T10:26:15.280Z,4.98
2018-03-07T10:28:50.570Z,4.96
2018-03-07T10:31:25.650Z,4.97
2018-03-07T10:34:00.707Z,5.02
2018-03-07T10:36:35.534Z,5.16
2018-03-07T10:39:10.634Z,5.18
2018-03-07T10:41:45.417Z,5.18
2018-03-07T10:44:20.503Z,5.23
2018-03-07T10:46:55.394Z,5.32
2018-03-07T10:49:30.647Z,5.46
2018-03-07T10:52:04.959Z,5.51
2018-03-07T10:54:40.558Z,5.55
2018-03-07T10:57:15.602Z,5.62
2018-03-07T10:59:50.548Z,5.65
2018-03-07T11:02:25.862Z,5.68
2018-03-07T11:05:02.775Z,5.72
2018-03-07T11:07:37.395Z,5.71
2018-03-07T11:10:12.699Z,5.73
2018-03-07T11:12:47.637Z,5.76
2018-03-07T11:15:22.370Z,5.82
2018-03-07T11:17:57.288Z,5.87
2018-03-07T11:20:31.943Z,5.90
2018-03-07T11:23:06.091Z,5.93
2018-03-07T11:25:41.284Z,5.94
2018-03-07T11:28:16.802Z,5.97
2018-03-07T11:30:51.607Z,6.04
2018-03-07T11:33:26.094Z,6.09
2018-03-07T11:36:01.004Z,6.14
2018-03-07T11:38:35.942Z,6.21
2018-03-07T11:41:11.080Z,6.19
2018-03-07T11:43:45.603Z,6.26
2018-03-07T11:46:20.598Z,6.29
2018-03-07T11:48:55.646Z,6.29
2018-03-07T11:51:30.734Z,6.33
2018-03-07T11:54:05.917Z,6.44
2018-03-07T11:56:40.947Z,6.52
2018-03-07T11:59:15.596Z,6.74
2018-03-07T12:01:50.624Z,6.87
2018-03-07T12:04:25.739Z,6.97
2018-03-07T12:07:00.576Z,7.11
2018-03-07T12:09:35.742Z,7.20
2018-03-07T12:12:10.891Z,7.27
2018-03-07T12:14:46.474Z,7.30
2018-03-07T12:17:21.649Z,7.37
2018-03-07T12:19:56.647Z,7.33
2018-03-07T12:22:31.690Z,7.18
2018-03-07T12:25:06.834Z,7.00
2018-03-07T12:27:41.954Z,6.94
2018-03-07T12:30:16.901Z,6.98
2018-03-07T12:32:52.218Z,7.10
2018-03-07T12:35:27.079Z,7.24
2018-03-07T12:38:02.971Z,7.21
2018-03-07T12:40:37.714Z,7.09
2018-03-07T12:43:12.892Z,7.08
2018-03-07T12:45:47.475Z,7.16
2018-03-07T12:48:22.746Z,7.20
2018-03-07T12:50:57.713Z,7.34
2018-03-07T12:53:32.655Z,7.46
2018-03-07T12:56:08.560Z,7.51
2018-03-07T12:58:43.731Z,7.59
2018-03-07T13:01:18.848Z,7.75
2018-03-07T13:03:53.904Z,7.99
2018-03-07T13:06:29.078Z,8.43
2018-03-07T13:09:03.171Z,8.90
2018-03-07T13:11:38.630Z,9.33
2018-03-07T13:14:13.679Z,9.75
2018-03-07T13:16:48.639Z,10.20
2018-03-07T13:19:23.648Z,10.62
2018-03-07T13:21:59.212Z,11.03
2018-03-07T13:24:34.867Z,11.42
2018-03-07T13:27:09.284Z,11.67
2018-03-07T13:29:44.771Z,11.61
2018-03-07T13:32:19.159Z,11.47
2018-03-07T13:34:53.766Z,11.41
2018-03-07T13:37:28.763Z,11.55
2018-03-07T13:40:10.727Z,11.77
2018-03-07T13:42:45.344Z,12.11
2018-03-07T13:45:20.810Z,12.38
2018-03-07T13:47:55.795Z,12.57
2018-03-07T13:50:30.903Z,12.81
2018-03-07T13:53:06.368Z,13.04
2018-03-07T13:55:41.052Z,13.22
2018-03-07T13:58:16.432Z,13.33
2018-03-07T14:00:51.010Z,13.41
2018-03-07T14:03:26.282Z,13.55
2018-03-07T14:06:01.292Z,13.67
2018-03-07T14:08:36.334Z,13.75
2018-03-07T14:11:12.190Z,13.86
2018-03-07T14:13:46.846Z,13.94
2018-03-07T14:16:22.053Z,13.92
2018-03-07T14:18:57.199Z,13.90
2018-03-07T14:21:31.836Z,13.88
2018-03-07T14:24:07.163Z,13.88
2018-03-07T14:26:41.793Z,13.87
2018-03-07T14:29:16.771Z,13.89
2018-03-07T14:31:51.834Z,13.87
2018-03-07T14:34:26.862Z,13.89
2018-03-07T14:37:03.227Z,13.97
2018-03-07T14:39:38.010Z,14.02
2018-03-07T14:42:13.218Z,14.06
2018-03-07T14:44:48.190Z,14.06
2018-03-07T14:47:22.834Z,14.04
2018-03-07T14:49:57.403Z,13.95
2018-03-07T14:52:32.900Z,13.94
2018-03-07T14:55:07.953Z,13.95
2018-03-07T14:57:42.967Z,14.03
2018-03-07T15:00:17.621Z,14.05
2018-03-07T15:02:53.106Z,14.03
2018-03-07T15:05:28.171Z,14.04
2018-03-07T15:08:03.300Z,13.99
2018-03-07T15:10:38.261Z,13.95
2018-03-07T15:13:13.217Z,13.92
2018-03-07T15:15:48.285Z,13.85
2018-03-07T15:18:22.905Z,13.80
2018-03-07T15:20:58.199Z,13.71
2018-03-07T15:23:33.267Z,13.65
2018-03-07T15:26:08.203Z,13.53
2018-03-07T15:28:43.790Z,13.29
2018-03-07T15:31:19.239Z,13.09
2018-03-07T15:33:54.104Z,12.94
2018-03-07T15:36:29.241Z,12.86
2018-03-07T15:39:03.287Z,12.79
2018-03-07T15:41:38.042Z,12.73
2018-03-07T15:44:13.104Z,12.70
2018-03-07T15:46:48.257Z,12.65
2018-03-07T15:49:22.914Z,12.60
2018-03-07T15:51:57.663Z,12.56
2018-03-07T15:54:32.147Z,12.47
2018-03-07T15:57:07.254Z,12.46
2018-03-07T15:59:42.222Z,12.41
2018-03-07T16:02:17.378Z,12.39
2018-03-07T16:04:52.898Z,12.33
2018-03-07T16:07:27.538Z,12.22
2018-03-07T16:10:03.460Z,12.15
2018-03-07T16:12:38.314Z,12.05
2018-03-07T16:15:13.339Z,11.94
2018-03-07T16:17:48.179Z,11.79
2018-03-07T16:20:23.284Z,11.50
2018-03-07T16:22:58.564Z,11.18
2018-03-07T16:25:34.051Z,10.95
2018-03-07T16:28:08.731Z,10.82
2018-03-07T16:30:44.244Z,10.79
2018-03-07T16:33:19.546Z,10.79
2018-03-07T16:35:54.147Z,10.81
2018-03-07T16:38:29.330Z,10.83
2018-03-07T16:41:04.392Z,10.85
2018-03-07T16:43:39.781Z,10.85
2018-03-07T16:46:14.638Z,10.82
2018-03-07T16:48:50.127Z,10.81
2018-03-07T16:51:24.906Z,10.74
2018-03-07T16:54:00.422Z,10.66
2018-03-07T16:56:35.414Z,10.58
2018-03-07T16:59:10.410Z,10.53
2018-03-07T17:01:45.367Z,10.55
2018-03-07T17:04:20.423Z,10.56
2018-03-07T17:06:55.612Z,10.57
2018-03-07T17:09:30.274Z,10.54
2018-03-07T17:12:05.478Z,10.43
2018-03-07T17:14:40.423Z,10.36
2018-03-07T17:17:15.393Z,10.28
2018-03-07T17:19:50.244Z,10.22
2018-03-07T17:22:25.295Z,10.19
2018-03-07T17:25:00.491Z,10.08
2018-03-07T17:27:35.116Z,9.97
2018-03-07T17:30:09.458Z,9.87
2018-03-07T17:32:45.720Z,9.73
2018-03-07T17:35:21.213Z,9.56
2018-03-07T17:37:56.168Z,9.43
2018-03-07T17:40:31.285Z,9.27
2018-03-07T17:43:06.675Z,9.20
2018-03-07T17:45:41.711Z,9.18
2018-03-07T17:48:16.350Z,9.08
2018-03-07T17:50:51.287Z,8.98
2018-03-07T17:53:26.262Z,8.87
2018-03-07T17:56:01.345Z,8.76
2018-03-07T17:58:36.845Z,8.69
2018-03-07T18:01:11.900Z,8.66
2018-03-07T18:03:46.788Z,8.66
2018-03-07T18:06:22.240Z,8.56
2018-03-07T18:08:57.511Z,8.49
2018-03-07T18:11:32.642Z,8.34
2018-03-07T18:14:08.112Z,8.31
2018-03-07T18:16:42.839Z,8.38
2018-03-07T18:19:17.951Z,8.41
2018-03-07T18:21:52.630Z,8.41
2018-03-07T18:24:27.676Z,8.37
2018-03-07T18:27:03.467Z,8.36
2018-03-07T18:29:38.637Z,8.39
2018-03-07T18:32:13.569Z,8.47
2018-03-07T18:34:48.271Z,8.49
2018-03-07T18:37:23.325Z,8.47
2018-03-07T18:39:57.948Z,8.39
2018-03-07T18:42:33.279Z,8.35
2018-03-07T18:45:08.516Z,8.32
2018-03-07T18:47:43.476Z,8.33
2018-03-07T18:50:18.476Z,8.39
2018-03-07T18:52:53.661Z,8.46
2018-03-07T18:55:28.378Z,8.50
2018-03-07T18:58:03.605Z,8.57
2018-03-07T19:00:38.669Z,8.61
2018-03-07T19:03:13.739Z,8.59
2018-03-07T19:05:48.856Z,8.58
2018-03-07T19:08:24.418Z,8.44
2018-03-07T19:10:59.535Z,8.25
2018-03-07T19:13:34.502Z,8.11
2018-03-07T19:16:09.671Z,7.96
2018-03-07T19:18:44.028Z,7.77
2018-03-07T19:21:19.477Z,7.66
2018-03-07T19:23:54.513Z,7.63
2018-03-07T19:26:29.858Z,7.51
2018-03-07T19:29:04.339Z,7.42
2018-03-07T19:31:38.507Z,7.40
2018-03-07T19:34:13.813Z,7.45
2018-03-07T19:36:48.982Z,7.53
2018-03-07T19:39:23.550Z,7.63
2018-03-07T19:41:58.691Z,7.76
2018-03-07T19:44:33.966Z,7.78
2018-03-07T19:47:09.434Z,7.74
2018-03-07T19:49:44.957Z,7.74
2018-03-07T19:52:20.743Z,7.77
2018-03-07T19:54:55.581Z,7.77
2018-03-07T19:57:30.614Z,7.70
2018-03-07T20:00:09.622Z,7.68
2018-03-07T20:02:44.502Z,7.63
2018-03-07T20:05:19.518Z,7.58
2018-03-07T20:07:54.309Z,7.43
2018-03-07T20:10:29.374Z,7.22
2018-03-07T20:13:04.521Z,7.18
2018-03-07T20:15:39.427Z,7.17
2018-03-07T20:18:14.516Z,7.12
2018-03-07T20:20:49.626Z,7.03
2018-03-07T20:23:23.978Z,6.97
2018-03-07T20:25:58.963Z,6.98
2018-03-07T20:28:34.347Z,7.06
2018-03-07T20:31:09.760Z,7.07
2018-03-07T20:33:44.854Z,7.07
2018-03-07T20:36:20.416Z,7.03
2018-03-07T20:38:55.524Z,7.01
2018-03-07T20:41:30.637Z,6.87
2018-03-07T20:44:05.552Z,6.74
2018-03-07T20:46:40.560Z,6.72
2018-03-07T20:49:15.650Z,6.73
2018-03-07T20:51:50.736Z,6.72
2018-03-07T20:54:25.661Z,6.71
2018-03-07T20:57:00.786Z,6.67
2018-03-07T20:59:35.863Z,6.68
2018-03-07T21:02:10.831Z,6.71
2018-03-07T21:04:45.812Z,6.77
2018-03-07T21:07:20.935Z,6.78
2018-03-07T21:09:56.051Z,6.74
2018-03-07T21:12:31.084Z,6.75
2018-03-07T21:15:05.843Z,6.78
2018-03-07T21:17:40.737Z,6.75
2018-03-07T21:20:15.607Z,6.72
2018-03-07T21:22:50.648Z,6.66
2018-03-07T21:25:25.007Z,6.63
2018-03-07T21:28:01.325Z,6.59
2018-03-07T21:30:36.190Z,6.63
2018-03-07T21:33:11.685Z,6.65
2018-03-07T21:35:46.773Z,6.66
2018-03-07T21:38:21.718Z,6.68
2018-03-07T21:40:56.787Z,6.64
2018-03-07T21:43:31.911Z,6.50
2018-03-07T21:46:07.385Z,6.45
2018-03-07T21:48:42.267Z,6.46
2018-03-07T21:51:16.962Z,6.50
2018-03-07T21:53:52.112Z,6.51
2018-03-07T21:56:27.090Z,6.46
2018-03-07T21:59:01.814Z,6.37
2018-03-07T22:01:36.755Z,6.41
2018-03-07T22:04:11.626Z,6.49
2018-03-07T22:06:46.884Z,6.58
2018-03-07T22:09:22.095Z,6.68
2018-03-07T22:11:57.584Z,6.82
2018-03-07T22:14:32.823Z,6.91
2018-03-07T22:17:07.974Z,6.97
2018-03-07T22:19:45.589Z,7.02
2018-03-07T22:22:20.717Z,7.04
2018-03-07T22:24:56.096Z,7.04
2018-03-07T22:27:30.911Z,7.01
2018-03-07T22:30:06.762Z,6.98
2018-03-07T22:32:41.610Z,7.04
2018-03-07T22:35:16.997Z,7.02
2018-03-07T22:37:51.984Z,7.09
2018-03-07T22:40:26.546Z,7.14
2018-03-07T22:43:02.007Z,7.20
2018-03-07T22:45:37.012Z,7.23
2018-03-07T22:48:13.503Z,7.26
2018-03-07T22:50:48.903Z,7.27
2018-03-07T22:53:23.785Z,7.31
2018-03-07T22:55:58.879Z,7.30
2018-03-07T22:58:33.867Z,7.31
2018-03-07T23:01:08.939Z,7.33
2018-03-07T23:03:43.771Z,7.36
2018-03-07T23:06:18.847Z,7.38
2018-03-07T23:08:53.889Z,7.38
2018-03-07T23:11:28.874Z,7.39
2018-03-07T23:14:04.210Z,7.37
2018-03-07T23:16:38.924Z,7.36
2018-03-07T23:19:14.192Z,7.36
2018-03-07T23:21:48.966Z,7.35
2018-03-07T23:24:24.054Z,7.34
2018-03-07T23:27:08.680Z,7.33
2018-03-07T23:29:43.188Z,7.32
2018-03-07T23:32:18.863Z,7.30
2018-03-07T23:34:53.887Z,7.30
2018-03-07T23:37:28.878Z,7.28
2018-03-07T23:40:04.026Z,7.28
2018-03-07T23:42:39.094Z,7.31
2018-03-07T23:45:14.017Z,7.36
2018-03-07T23:47:49.067Z,7.41
2018-03-07T23:50:24.293Z,7.43
2018-03-07T23:52:59.486Z,7.44
2018-03-07T23:55:34.258Z,7.47
2018-03-07T23:58:10.115Z,7.45
